Time;durP1;ratioP1;P1;durP2;ratioP2;P2;SDS_P1;SDS_P2;PMS_P1;PMS_P2;Temp;Humidity;BMP_temperature;BMP_pressure;BME280_temperature;BME280_humidity;BME280_pressure;Samples;Min_cycle;Max_cycle;Signal;HPM_P1;HPM_P2
2021/11/30 00:00:55;;;;;;;;;;;;;;;2.40;100.00;98450.50;1728369;82;20142;-84
2021/11/30 00:03:21;;;;;;;;;;;;;;;2.31;100.00;98446.98;1726824;82;20120;-85
2021/11/30 00:05:50;;;;;;;;;;;;;;;2.33;100.00;98448.94;1725252;82;21196;-84
2021/11/30 00:08:19;;;;;;;;;;;;;;;2.40;100.00;98453.92;1728031;82;20183;-85
2021/11/30 00:10:47;;;;;;;;;;;;;;;2.30;100.00;98451.84;1729847;82;20207;-87
2021/11/30 00:13:15;;;;;;;;;;;;;;;2.23;100.00;98448.19;1728365;82;20218;-85
2021/11/30 00:15:41;;;;;;;;;;;;;;;2.27;100.00;98462.55;1724119;82;20210;-85
2021/11/30 00:18:08;;;;;;;;;;;;;;;2.31;100.00;98452.99;1726986;82;21222;-85
2021/11/30 00:20:36;;;;;;;;;;;;;;;2.20;100.00;98466.22;1723247;81;20178;-87
2021/11/30 00:23:02;;;;;;;;;;;;;;;2.26;100.00;98468.74;1728525;81;20508;-85
2021/11/30 00:25:31;;;;;;;;;;;;;;;2.17;100.00;98469.11;1715532;83;20629;-86
2021/11/30 00:27:58;;;;;;;;;;;;;;;2.24;100.00;98470.68;1729530;82;20101;-85
2021/11/30 00:30:23;;;;;;;;;;;;;;;2.21;100.00;98494.41;1727434;82;22174;-86
2021/11/30 00:32:52;;;;;;;;;;;;;;;2.31;100.00;98471.72;1727240;82;20433;-85
2021/11/30 00:35:19;;;;;;;;;;;;;;;2.24;100.00;98473.28;1710483;83;20169;-86
2021/11/30 00:37:45;;;;;;;;;;;;;;;2.27;100.00;98485.98;1724542;82;20196;-86
2021/11/30 00:40:13;;;;;;;;;;;;;;;2.32;100.00;98483.79;1724980;82;20228;-85
2021/11/30 00:42:41;;;;;;;;;;;;;;;2.10;100.00;98490.20;1728417;82;21484;-86
2021/11/30 00:45:08;;;;;;;;;;;;;;;2.04;100.00;98496.78;1723194;82;20159;-87
2021/11/30 00:47:36;;;;;;;;;;;;;;;2.12;100.00;98489.08;1727980;82;20180;-86
2021/11/30 00:50:04;;;;;;;;;;;;;;;2.21;100.00;98538.67;1726438;82;20212;-85
2021/11/30 00:52:30;;;;;;;;;;;;;;;2.18;100.00;98498.11;1704234;81;20417;-86
2021/11/30 00:54:57;;;;;;;;;;;;;;;2.12;100.00;98517.72;1755075;80;21942;-86
2021/11/30 00:57:25;;;;;;;;;;;;;;;2.10;100.00;98511.03;1765332;79;20672;-86
2021/11/30 00:59:53;;;;;;;;;;;;;;;2.20;100.00;98516.19;1763514;80;20189;-86
2021/11/30 01:02:19;;;;;;;;;;;;;;;2.14;100.00;98526.22;1769139;79;20244;-91
2021/11/30 01:04:46;;;;;;;;;;;;;;;2.11;100.00;98524.37;1755639;79;20225;-87
2021/11/30 01:07:14;;;;;;;;;;;;;;;2.24;100.00;98533.19;1739428;80;22002;-87
2021/11/30 01:09:41;;;;;;;;;;;;;;;2.24;100.00;98532.69;1765690;80;20155;-87
2021/11/30 01:12:07;;;;;;;;;;;;;;;2.26;100.00;98536.45;1770901;80;20208;-86
2021/11/30 01:14:36;;;;;;;;;;;;;;;2.32;100.00;98534.58;1764713;80;20141;-86
2021/11/30 01:17:01;;;;;;;;;;;;;;;2.30;100.00;98539.09;1763318;79;20167;-87
2021/11/30 01:19:27;;;;;;;;;;;;;;;2.32;100.00;98548.91;1763249;80;21146;-86
2021/11/30 01:21:53;;;;;;;;;;;;;;;2.33;100.00;98538.34;1762185;79;20172;-86
2021/11/30 01:24:18;;;;;;;;;;;;;;;2.29;100.00;98539.59;1764198;80;20208;-87
2021/11/30 01:26:44;;;;;;;;;;;;;;;2.33;100.00;98537.50;1766000;80;20142;-87
2021/11/30 01:29:10;;;;;;;;;;;;;;;2.28;100.00;98544.94;1754650;80;20506;-88
2021/11/30 01:31:35;;;;;;;;;;;;;;;2.19;100.00;98549.23;1762168;80;21138;-90
2021/11/30 01:34:05;;;;;;;;;;;;;;;2.25;100.00;98540.86;1766920;80;20143;-84
2021/11/30 01:36:30;;;;;;;;;;;;;;;2.24;100.00;98565.73;1769020;79;20488;-87
2021/11/30 01:38:59;;;;;;;;;;;;;;;2.36;100.00;98559.36;1762824;80;20168;-87
2021/11/30 01:41:26;;;;;;;;;;;;;;;2.33;100.00;98558.34;1763088;80;20191;-87
2021/11/30 01:43:52;;;;;;;;;;;;;;;2.23;100.00;98564.09;1744574;80;21142;-88
2021/11/30 01:51:31;;;;;;;;;;;;;;;2.21;100.00;98568.63;1760193;79;20162;-87
2021/11/30 01:53:57;;;;;;;;;;;;;;;2.21;100.00;98568.63;1754721;80;20138;-85
2021/11/30 01:56:23;;;;;;;;;;;;;;;2.22;100.00;98550.25;1748880;81;20967;-89
2021/11/30 01:58:49;;;;;;;;;;;;;;;2.18;100.00;98559.80;1750564;81;20206;-88
2021/11/30 02:01:17;;;;;;;;;;;;;;;2.25;100.00;98549.97;1751573;80;20219;-86
2021/11/30 02:03:44;;;;;;;;;;;;;;;2.22;100.00;98565.04;1750424;81;20198;-87
2021/11/30 02:06:09;;;;;;;;;;;;;;;2.18;100.00;98576.72;1749839;81;20194;-85
2021/11/30 02:08:35;;;;;;;;;;;;;;;2.10;100.00;98569.13;1756192;81;21183;-87
2021/11/30 02:11:01;;;;;;;;;;;;;;;2.04;100.00;98569.69;1715876;81;20251;-87
2021/11/30 02:13:26;;;;;;;;;;;;;;;1.96;98.95;98598.21;1753217;81;20155;-87
2021/11/30 02:15:55;;;;;;;;;;;;;;;1.96;98.07;98577.39;1754636;81;20924;-84
2021/11/30 02:18:23;;;;;;;;;;;;;;;1.90;97.61;98572.73;1756162;81;20158;-90
2021/11/30 02:20:56;;;;;;;;;;;;;;;1.82;97.62;98577.34;1754440;81;21188;-86
2021/11/30 02:23:38;;;;;;;;;;;;;;;1.88;97.49;98575.94;1751106;81;20140;-88
2021/11/30 02:25:52;;;;;;;;;;;;;;;2.01;97.04;98579.08;1745995;81;20445;-88
2021/11/30 02:28:17;;;;;;;;;;;;;;;1.77;96.80;98592.06;1747743;80;20158;-87
2021/11/30 02:30:43;;;;;;;;;;;;;;;1.81;97.51;98576.17;1749380;81;20140;-89
2021/11/30 02:33:08;;;;;;;;;;;;;;;1.77;97.59;98584.26;1747997;81;21131;-88
2021/11/30 02:35:34;;;;;;;;;;;;;;;1.88;98.21;98585.05;1749133;81;20722;-87
2021/11/30 02:38:00;;;;;;;;;;;;;;;1.85;98.88;98577.52;1750672;81;20115;-87
2021/11/30 02:40:26;;;;;;;;;;;;;;;1.75;99.39;98591.36;1748582;81;20204;-88
2021/11/30 02:42:52;;;;;;;;;;;;;;;1.77;99.33;98581.66;1748186;81;20130;-85
2021/11/30 02:45:18;;;;;;;;;;;;;;;1.83;99.22;98583.35;1753735;81;21199;-87
2021/11/30 02:47:44;;;;;;;;;;;;;;;1.75;99.18;98614.78;1753271;80;20629;-88
2021/11/30 02:50:09;;;;;;;;;;;;;;;1.77;99.49;98588.63;1743665;81;20445;-88
2021/11/30 02:52:36;;;;;;;;;;;;;;;1.64;99.60;98585.01;1753858;80;20321;-86
2021/11/30 02:55:02;;;;;;;;;;;;;;;1.63;99.62;98600.27;1755099;80;20164;-86
2021/11/30 02:57:27;;;;;;;;;;;;;;;1.65;99.95;98600.97;1750238;81;21336;-86
2021/11/30 02:59:55;;;;;;;;;;;;;;;1.68;100.00;98585.09;1746135;81;20154;-86
2021/11/30 03:02:27;;;;;;;;;;;;;;;1.84;100.00;98604.04;1756561;81;20124;-87
2021/11/30 03:04:54;;;;;;;;;;;;;;;1.78;100.00;98602.80;1755040;81;20696;-87
2021/11/30 03:07:22;;;;;;;;;;;;;;;1.77;100.00;98599.03;1745007;80;20203;-87
2021/11/30 03:09:48;;;;;;;;;;;;;;;1.85;99.78;98633.48;1717991;81;21840;-88
2021/11/30 03:12:16;;;;;;;;;;;;;;;1.75;100.00;98608.28;1752767;81;20171;-90
2021/11/30 03:14:42;;;;;;;;;;;;;;;1.90;100.00;98616.98;1759687;81;20168;-88
2021/11/30 03:17:07;;;;;;;;;;;;;;;1.82;100.00;98611.63;1749960;81;20722;-87
2021/11/30 03:19:33;;;;;;;;;;;;;;;1.82;100.00;98609.03;1756543;81;20168;-92
2021/11/30 03:21:59;;;;;;;;;;;;;;;1.76;100.00;98620.83;1753317;80;21012;-88
2021/11/30 03:24:25;;;;;;;;;;;;;;;1.81;100.00;98616.02;1754668;81;20477;-87
2021/11/30 03:26:50;;;;;;;;;;;;;;;1.71;100.00;98644.66;1750121;80;20130;-87
2021/11/30 03:29:16;;;;;;;;;;;;;;;1.75;100.00;98629.59;1749924;81;20144;-87
2021/11/30 03:34:17;;;;;;;;;;;;;;;1.71;100.00;98622.55;1747715;81;20172;-87
2021/11/30 03:36:46;;;;;;;;;;;;;;;1.68;100.00;98644.94;1742259;81;20199;-87
2021/11/30 03:39:17;;;;;;;;;;;;;;;1.61;100.00;98629.52;1753273;81;20180;-87
2021/11/30 03:41:45;;;;;;;;;;;;;;;1.54;100.00;98632.31;1752185;80;20184;-86
2021/11/30 03:44:13;;;;;;;;;;;;;;;1.68;100.00;98627.18;1750497;81;20185;-87
2021/11/30 03:46:39;;;;;;;;;;;;;;;1.56;100.00;98638.22;1752065;81;21176;-87
2021/11/30 03:49:07;;;;;;;;;;;;;;;1.53;100.00;98632.80;1750654;81;20472;-87
2021/11/30 03:51:32;;;;;;;;;;;;;;;1.33;100.00;98622.84;1752813;81;20197;-87
2021/11/30 03:53:58;;;;;;;;;;;;;;;1.40;100.00;98635.67;1749797;81;20130;-87
2021/11/30 03:56:25;;;;;;;;;;;;;;;1.50;100.00;98633.56;1735103;80;20817;-87
2021/11/30 03:58:53;;;;;;;;;;;;;;;1.40;100.00;98664.28;1743563;81;20120;-87
2021/11/30 04:01:21;;;;;;;;;;;;;;;1.45;100.00;98637.05;1742914;81;20122;-87
2021/11/30 04:03:46;;;;;;;;;;;;;;;1.53;99.59;98654.09;1748977;80;20153;-87
2021/11/30 04:06:12;;;;;;;;;;;;;;;1.58;99.47;98630.59;1738124;81;20457;-87
2021/11/30 04:08:39;;;;;;;;;;;;;;;1.54;99.05;98663.53;1737166;81;20146;-86
2021/11/30 04:11:08;;;;;;;;;;;;;;;1.59;98.83;98638.76;1733160;80;21093;-88
2021/11/30 04:13:37;;;;;;;;;;;;;;;1.38;98.76;98644.09;1730412;81;20701;-85
2021/11/30 04:16:08;;;;;;;;;;;;;;;1.45;97.45;98645.67;1735638;81;20144;-87
2021/11/30 04:18:37;;;;;;;;;;;;;;;1.56;96.58;98634.31;1724033;81;20192;-85
2021/11/30 04:21:02;;;;;;;;;;;;;;;1.53;96.21;98659.30;1737807;81;20113;-86
2021/11/30 04:23:28;;;;;;;;;;;;;;;1.52;95.69;98662.36;1734714;81;22604;-85
2021/11/30 04:25:54;;;;;;;;;;;;;;;1.54;95.35;98653.12;1746325;80;20282;-85
2021/11/30 04:28:21;;;;;;;;;;;;;;;1.48;94.68;98654.99;1728662;81;20230;-87
2021/11/30 04:30:49;;;;;;;;;;;;;;;1.43;93.63;98644.50;1735705;81;20720;-87
2021/11/30 04:33:15;;;;;;;;;;;;;;;1.47;93.20;98657.23;1734413;81;20158;-86
2021/11/30 04:35:40;;;;;;;;;;;;;;;1.32;93.41;98665.44;1734800;81;21111;-87
2021/11/30 04:38:06;;;;;;;;;;;;;;;1.37;93.88;98666.34;1744847;80;20176;-84
2021/11/30 04:40:31;;;;;;;;;;;;;;;1.37;94.00;98654.63;1746172;81;20154;-85
2021/11/30 04:42:57;;;;;;;;;;;;;;;1.31;94.27;98671.58;1733625;81;20198;-85
2021/11/30 04:45:26;;;;;;;;;;;;;;;1.45;93.27;98653.96;1728477;81;20944;-87
2021/11/30 04:47:53;;;;;;;;;;;;;;;1.38;93.48;98663.60;1730868;81;20131;-86
2021/11/30 04:50:23;;;;;;;;;;;;;;;1.37;94.09;98668.45;1737795;81;20255;-85
2021/11/30 04:52:49;;;;;;;;;;;;;;;1.45;94.35;98685.98;1731799;81;20180;-86
2021/11/30 04:55:22;;;;;;;;;;;;;;;1.35;94.48;98675.57;1723241;80;20099;-86
2021/11/30 04:57:52;;;;;;;;;;;;;;;1.31;94.83;98670.77;1709482;83;20217;-85
2021/11/30 05:00:17;;;;;;;;;;;;;;;1.33;94.97;98687.87;1713200;81;20502;-87
2021/11/30 05:02:45;;;;;;;;;;;;;;;1.46;94.74;98677.70;1712596;81;20141;-86
2021/11/30 05:05:13;;;;;;;;;;;;;;;1.46;95.14;98673.80;1709207;83;20203;-85
2021/11/30 05:07:41;;;;;;;;;;;;;;;1.51;95.41;98666.40;1690413;83;20168;-87
2021/11/30 05:10:07;;;;;;;;;;;;;;;1.41;95.85;98682.84;1712451;81;20177;-85
2021/11/30 05:12:34;;;;;;;;;;;;;;;1.35;96.22;98679.47;1709856;83;21150;-88
2021/11/30 05:15:00;;;;;;;;;;;;;;;1.31;95.87;98692.39;1713524;83;20371;-90
2021/11/30 05:17:28;;;;;;;;;;;;;;;1.33;96.21;98674.86;1714502;82;20136;-88
2021/11/30 05:19:56;;;;;;;;;;;;;;;0.98;97.60;98691.74;1714811;83;21212;-89
2021/11/30 05:22:21;;;;;;;;;;;;;;;1.11;97.66;98691.51;1711340;83;20144;-84
2021/11/30 05:24:47;;;;;;;;;;;;;;;1.19;96.88;98694.26;1706036;83;20992;-85
2021/11/30 05:27:16;;;;;;;;;;;;;;;1.26;96.51;98697.17;1714410;82;20148;-85
2021/11/30 05:29:42;;;;;;;;;;;;;;;1.18;97.09;98702.19;1713394;82;20121;-86
2021/11/30 05:32:08;;;;;;;;;;;;;;;1.20;97.35;98693.80;1711767;82;20622;-85
2021/11/30 05:34:36;;;;;;;;;;;;;;;1.05;97.72;98695.44;1715104;82;20287;-85
2021/11/30 05:37:01;;;;;;;;;;;;;;;1.05;98.54;98687.64;1711244;83;21200;-86
2021/11/30 05:39:28;;;;;;;;;;;;;;;0.97;98.69;98692.69;1713519;83;20187;-87
2021/11/30 05:41:56;;;;;;;;;;;;;;;0.94;98.84;98705.94;1708901;83;20848;-85
2021/11/30 05:44:22;;;;;;;;;;;;;;;1.02;98.56;98693.11;1709314;83;20922;-87
2021/11/30 05:46:49;;;;;;;;;;;;;;;0.84;97.40;98699.87;1686056;83;20466;-89
2021/11/30 05:49:15;;;;;;;;;;;;;;;0.76;98.01;98698.41;1714635;83;21301;-85
2021/11/30 05:51:41;;;;;;;;;;;;;;;1.04;97.53;98696.42;1712304;83;20647;-86
2021/11/30 05:54:06;;;;;;;;;;;;;;;1.02;97.15;98687.91;1713318;80;20590;-84
2021/11/30 05:56:32;;;;;;;;;;;;;;;0.99;97.36;98698.56;1748195;81;20165;-85
2021/11/30 05:58:58;;;;;;;;;;;;;;;0.85;97.78;98707.53;1749109;81;20525;-85
2021/11/30 06:01:27;;;;;;;;;;;;;;;0.98;97.69;98702.14;1753027;80;21210;-87
2021/11/30 06:06:20;;;;;;;;;;;;;;;0.98;98.17;98694.34;1761701;81;20166;-84
2021/11/30 06:08:45;;;;;;;;;;;;;;;0.93;98.56;98709.48;1748961;81;20195;-84
2021/11/30 06:11:13;;;;;;;;;;;;;;;1.01;98.41;98709.67;1746601;81;21424;-84
2021/11/30 06:13:38;;;;;;;;;;;;;;;1.03;98.31;98707.76;1751024;81;20116;-84
2021/11/30 06:16:05;;;;;;;;;;;;;;;0.96;98.49;98731.31;1746819;81;20509;-83
2021/11/30 06:18:31;;;;;;;;;;;;;;;0.95;98.72;98707.59;1753580;81;20156;-84
2021/11/30 06:20:58;;;;;;;;;;;;;;;0.97;98.89;98700.48;1746545;80;20185;-87
2021/11/30 06:23:24;;;;;;;;;;;;;;;1.01;98.54;98708.38;1752114;81;20154;-84
2021/11/30 06:25:50;;;;;;;;;;;;;;;0.99;98.71;98707.66;1749522;80;21893;-81
2021/11/30 06:28:16;;;;;;;;;;;;;;;0.98;98.82;98707.80;1752696;80;20193;-82
2021/11/30 06:30:45;;;;;;;;;;;;;;;0.96;98.74;98707.92;1749836;81;20120;-82
2021/11/30 06:33:10;;;;;;;;;;;;;;;0.92;98.83;98703.11;1747406;80;20188;-82
2021/11/30 06:35:39;;;;;;;;;;;;;;;0.78;99.50;98706.88;1752800;81;20165;-82
2021/11/30 06:38:09;;;;;;;;;;;;;;;0.92;99.37;98705.72;1745580;81;21130;-86
2021/11/30 06:40:34;;;;;;;;;;;;;;;0.82;99.38;98699.19;1749319;81;20229;-81
2021/11/30 06:43:00;;;;;;;;;;;;;;;0.85;99.58;98703.63;1743327;80;20215;-85
2021/11/30 06:45:29;;;;;;;;;;;;;;;1.06;99.03;98698.40;1746820;81;20144;-85
2021/11/30 06:47:55;;;;;;;;;;;;;;;0.96;98.90;98703.21;1754591;81;20149;-85
2021/11/30 06:50:20;;;;;;;;;;;;;;;1.01;98.90;98700.58;1747633;81;22057;-85
2021/11/30 06:52:48;;;;;;;;;;;;;;;0.96;99.00;98710.52;1743619;81;20114;-84
2021/11/30 06:55:15;;;;;;;;;;;;;;;1.02;99.52;98702.69;1746354;81;20196;-85
2021/11/30 06:57:42;;;;;;;;;;;;;;;1.03;99.17;98707.76;1729202;81;20174;-86
2021/11/30 07:00:11;;;;;;;;;;;;;;;1.12;98.74;98711.36;1749353;81;20234;-84
2021/11/30 07:02:36;;;;;;;;;;;;;;;0.99;99.40;98701.16;1722674;80;21557;-88
2021/11/30 07:10:41;;;;;;;;;;;;;;;1.05;99.71;98713.64;1752768;81;20238;-87
2021/11/30 07:15:59;;;;;;;;;;;;;;;1.13;99.65;98701.77;1754405;81;20148;-84
2021/11/30 07:18:24;;;;;;;;;;;;;;;1.03;100.00;98689.56;1752429;81;20085;-84
2021/11/30 07:20:50;;;;;;;;;;;;;;;1.16;100.00;98689.81;1745853;81;20307;-86
2021/11/30 07:23:18;;;;;;;;;;;;;;;1.21;99.44;98690.23;1755387;80;20264;-85
2021/11/30 07:25:44;;;;;;;;;;;;;;;1.13;99.60;98689.59;1739315;81;20426;-86
2021/11/30 07:28:09;;;;;;;;;;;;;;;1.10;99.68;98696.84;1756160;81;21033;-88
2021/11/30 07:30:35;;;;;;;;;;;;;;;1.21;99.85;98680.67;1741527;80;20345;-84
2021/11/30 07:33:02;;;;;;;;;;;;;;;1.21;99.64;98687.17;1747839;80;20249;-85
2021/11/30 07:35:28;;;;;;;;;;;;;;;1.26;99.68;98681.58;1749476;81;20230;-87
2021/11/30 07:37:54;;;;;;;;;;;;;;;1.23;99.52;98677.94;1751733;81;20478;-85
2021/11/30 07:40:20;;;;;;;;;;;;;;;1.26;99.53;98669.88;1752341;81;21125;-83
2021/11/30 07:42:46;;;;;;;;;;;;;;;1.20;99.08;98640.50;1751107;81;20832;-86
2021/11/30 07:45:12;;;;;;;;;;;;;;;1.34;98.58;98673.92;1751176;81;20148;-85
2021/11/30 07:47:38;;;;;;;;;;;;;;;1.35;99.25;98665.63;1776329;80;20190;-86
2021/11/30 07:50:05;;;;;;;;;;;;;;;1.28;99.62;98654.13;1753685;80;20100;-85
2021/11/30 07:52:36;;;;;;;;;;;;;;;1.10;99.90;98656.55;1719759;81;21377;-85
2021/11/30 07:55:04;;;;;;;;;;;;;;;1.10;100.00;98663.04;1753263;80;20342;-82
2021/11/30 07:57:27;;;;;;;;;;;;;;;1.22;100.00;98654.18;1752795;80;20597;-83
2021/11/30 07:59:52;;;;;;;;;;;;;;;1.34;100.00;98643.20;1751093;80;20946;-82
2021/11/30 08:02:19;;;;;;;;;;;;;;;1.37;100.00;98639.03;1748027;81;20264;-83
2021/11/30 08:04:49;;;;;;;;;;;;;;;1.38;100.00;98641.50;1745440;80;20138;-85
2021/11/30 08:07:16;;;;;;;;;;;;;;;1.29;100.00;98631.05;1749375;80;20135;-83
2021/11/30 08:09:44;;;;;;;;;;;;;;;1.19;100.00;98659.64;1746569;80;20134;-83
2021/11/30 08:12:10;;;;;;;;;;;;;;;1.14;100.00;98630.63;1749419;81;20169;-82
2021/11/30 08:14:36;;;;;;;;;;;;;;;0.95;100.00;98619.23;1752222;81;20266;-87
2021/11/30 08:17:02;;;;;;;;;;;;;;;1.03;100.00;98622.47;1745319;81;21129;-85
2021/11/30 08:19:30;;;;;;;;;;;;;;;0.86;100.00;98612.23;1779679;80;20100;-84
2021/11/30 08:21:56;;;;;;;;;;;;;;;1.08;100.00;98608.09;1745052;81;20136;-82
2021/11/30 08:24:21;;;;;;;;;;;;;;;1.03;100.00;98603.78;1763192;80;20117;-83
2021/11/30 08:26:50;;;;;;;;;;;;;;;1.11;100.00;98597.11;1767364;80;20783;-80
2021/11/30 08:29:16;;;;;;;;;;;;;;;1.03;100.00;98599.89;1768000;80;21328;-82
2021/11/30 08:31:43;;;;;;;;;;;;;;;1.19;100.00;98598.05;1761470;79;20188;-80
2021/11/30 08:34:09;;;;;;;;;;;;;;;1.29;100.00;98595.49;1766669;80;20123;-81
2021/11/30 08:36:34;;;;;;;;;;;;;;;1.28;100.00;98596.44;1765692;80;20128;-80
2021/11/30 08:39:01;;;;;;;;;;;;;;;1.34;100.00;98619.30;1756330;80;21148;-81
2021/11/30 08:41:29;;;;;;;;;;;;;;;1.39;100.00;98588.98;1764125;80;21133;-82
2021/11/30 08:43:54;;;;;;;;;;;;;;;1.42;98.81;98596.03;1760825;80;20195;-81
2021/11/30 08:46:20;;;;;;;;;;;;;;;1.55;99.20;98594.94;1760774;80;20149;-80
2021/11/30 08:48:47;;;;;;;;;;;;;;;1.51;98.02;98577.95;1753360;80;20141;-81
2021/11/30 08:51:12;;;;;;;;;;;;;;;1.64;97.54;98565.50;1744759;79;20155;-83
2021/11/30 08:53:38;;;;;;;;;;;;;;;1.67;97.82;98578.23;1756533;80;21394;-83
2021/11/30 08:56:07;;;;;;;;;;;;;;;1.71;95.33;98567.90;1740076;80;20585;-87
2021/11/30 08:58:34;;;;;;;;;;;;;;;1.67;94.92;98561.31;1725272;81;20186;-83
2021/11/30 09:00:59;;;;;;;;;;;;;;;1.70;94.61;98552.42;1713799;82;20346;-82
2021/11/30 09:03:25;;;;;;;;;;;;;;;1.69;93.71;98559.87;1709614;83;20543;-85
2021/11/30 09:05:50;;;;;;;;;;;;;;;1.72;93.38;98547.41;1712933;83;21099;-82
2021/11/30 09:08:18;;;;;;;;;;;;;;;1.57;92.02;98552.23;1712933;83;20263;-86
2021/11/30 09:10:43;;;;;;;;;;;;;;;1.72;91.67;98546.59;1709067;82;20168;-83
2021/11/30 09:13:09;;;;;;;;;;;;;;;1.77;90.32;98538.72;1714694;83;20243;-83
2021/11/30 09:15:35;;;;;;;;;;;;;;;1.85;89.21;98539.32;1722703;81;20477;-84
2021/11/30 09:18:02;;;;;;;;;;;;;;;1.91;88.47;98534.02;1724561;82;22332;-86
2021/11/30 09:20:28;;;;;;;;;;;;;;;1.97;87.73;98537.36;1728472;82;20135;-83
2021/11/30 09:22:54;;;;;;;;;;;;;;;2.04;86.87;98525.42;1698544;82;20194;-85
2021/11/30 09:25:20;;;;;;;;;;;;;;;2.21;85.83;98523.86;1727491;82;20266;-85
2021/11/30 09:27:47;;;;;;;;;;;;;;;2.19;85.30;98518.45;1724834;82;20190;-84
2021/11/30 09:30:14;;;;;;;;;;;;;;;2.18;84.44;98507.71;1707978;82;21086;-84
2021/11/30 09:32:41;;;;;;;;;;;;;;;2.02;83.45;98501.33;1680487;83;20489;-84
2021/11/30 09:35:09;;;;;;;;;;;;;;;2.10;83.67;98491.50;1748382;81;20138;-82
2021/11/30 09:37:39;;;;;;;;;;;;;;;2.21;83.65;98491.80;1750615;81;20467;-82
2021/11/30 09:40:05;;;;;;;;;;;;;;;1.93;82.99;98481.34;1749009;81;20460;-83
2021/11/30 09:42:30;;;;;;;;;;;;;;;2.07;83.02;98486.09;1716114;81;21119;-82
2021/11/30 09:44:58;;;;;;;;;;;;;;;1.99;82.55;98482.08;1746107;81;20272;-88
2021/11/30 09:47:26;;;;;;;;;;;;;;;2.10;82.56;98475.39;1725770;82;20199;-83
2021/11/30 09:49:53;;;;;;;;;;;;;;;2.06;82.51;98472.72;1741194;81;20175;-80
2021/11/30 09:52:20;;;;;;;;;;;;;;;1.99;82.51;98465.16;1705831;83;20248;-82
2021/11/30 09:54:47;;;;;;;;;;;;;;;2.18;82.68;98473.86;1722506;82;21146;-80
2021/11/30 09:57:14;;;;;;;;;;;;;;;2.26;82.92;98470.85;1737636;80;20636;-80
2021/11/30 09:59:46;;;;;;;;;;;;;;;2.22;83.08;98451.75;1766941;80;20109;-82
2021/11/30 10:02:08;;;;;;;;;;;;;;;2.05;83.16;98447.67;1772906;80;20850;-82
2021/11/30 10:04:36;;;;;;;;;;;;;;;2.21;83.80;98439.72;1765879;80;21056;-82
2021/11/30 10:07:04;;;;;;;;;;;;;;;2.11;83.37;98439.28;1763196;80;21167;-85
2021/11/30 10:09:34;;;;;;;;;;;;;;;2.18;84.03;98429.59;1769876;80;20178;-85
2021/11/30 10:12:04;;;;;;;;;;;;;;;2.31;83.71;98417.02;1770105;80;21020;-81
2021/11/30 10:14:34;;;;;;;;;;;;;;;2.11;82.33;98417.15;1766631;80;20156;-83
2021/11/30 10:17:19;;;;;;;;;;;;;;;2.21;82.56;98422.79;1767463;80;21027;-85
2021/11/30 10:20:01;;;;;;;;;;;;;;;2.06;81.99;98410.23;1758371;80;21190;-83
2021/11/30 10:22:34;;;;;;;;;;;;;;;2.36;82.77;98410.08;1764441;80;20263;-84
2021/11/30 10:25:19;;;;;;;;;;;;;;;2.27;82.82;98397.44;1759748;80;20519;-83
2021/11/30 10:27:48;;;;;;;;;;;;;;;2.11;84.05;98397.62;1758510;80;20123;-82
2021/11/30 10:30:17;;;;;;;;;;;;;;;2.24;85.03;98387.34;1759591;80;20205;-82
2021/11/30 10:32:46;;;;;;;;;;;;;;;2.33;85.18;98388.58;1733948;80;39716;-81
2021/11/30 10:35:12;;;;;;;;;;;;;;;2.19;87.50;98375.22;1767908;80;20654;-84
2021/11/30 10:37:43;;;;;;;;;;;;;;;2.38;87.24;98375.11;1761534;80;20145;-80
2021/11/30 10:40:15;;;;;;;;;;;;;;;2.19;88.32;98368.71;1768705;80;20741;-82
2021/11/30 10:42:46;;;;;;;;;;;;;;;2.26;89.25;98361.96;1764144;80;20512;-81
2021/11/30 10:45:15;;;;;;;;;;;;;;;2.02;90.55;98358.14;1767186;80;21160;-80
2021/11/30 10:47:42;;;;;;;;;;;;;;;2.23;90.52;98355.25;1764071;80;20156;-80
2021/11/30 10:50:11;;;;;;;;;;;;;;;2.13;91.83;98350.11;1751120;80;20207;-81
2021/11/30 10:52:40;;;;;;;;;;;;;;;1.81;93.38;98338.05;1765185;80;20149;-81
2021/11/30 10:55:12;;;;;;;;;;;;;;;2.06;92.80;98329.52;1768188;80;20191;-82
2021/11/30 10:57:38;;;;;;;;;;;;;;;2.15;92.71;98326.04;1758691;80;20497;-81
2021/11/30 11:00:27;;;;;;;;;;;;;;;2.28;92.05;98314.44;1762634;80;20153;-81
2021/11/30 11:05:33;;;;;;;;;;;;;;;2.28;92.84;98310.04;1762111;80;20172;-81
2021/11/30 11:08:05;;;;;;;;;;;;;;;2.31;93.42;98305.03;1762510;80;20969;-84
2021/11/30 11:10:31;;;;;;;;;;;;;;;2.43;93.90;98296.52;1771098;80;21878;-82
2021/11/30 11:13:17;;;;;;;;;;;;;;;2.29;93.86;98286.95;1760929;80;20177;-82
2021/11/30 11:15:43;;;;;;;;;;;;;;;2.17;95.11;98284.72;1761494;80;20245;-82
2021/11/30 11:18:28;;;;;;;;;;;;;;;2.33;95.94;98274.43;1766596;80;20224;-81
2021/11/30 11:21:15;;;;;;;;;;;;;;;2.33;96.21;98269.22;1762074;80;20205;-83
2021/11/30 11:23:42;;;;;;;;;;;;;;;2.12;97.40;98264.34;1769789;80;21213;-83
2021/11/30 11:26:20;;;;;;;;;;;;;;;2.06;98.64;98252.72;1764672;80;20227;-85
2021/11/30 11:28:46;;;;;;;;;;;;;;;2.05;99.33;98241.16;1768654;80;20201;-80
2021/11/30 11:31:12;;;;;;;;;;;;;;;2.09;99.63;98231.59;1768811;80;20539;-82
2021/11/30 11:33:39;;;;;;;;;;;;;;;2.36;98.66;98222.04;1766067;80;20469;-81
2021/11/30 11:36:07;;;;;;;;;;;;;;;2.44;98.53;98214.30;1769987;80;21151;-81
2021/11/30 11:38:34;;;;;;;;;;;;;;;2.29;99.27;98208.00;1768266;80;20491;-81
2021/11/30 11:41:02;;;;;;;;;;;;;;;2.32;99.47;98192.08;1766816;80;20477;-82
2021/11/30 11:43:27;;;;;;;;;;;;;;;2.38;99.82;98192.77;1763011;80;20393;-82
2021/11/30 11:45:54;;;;;;;;;;;;;;;2.36;99.60;98194.69;1732381;80;20173;-80
2021/11/30 11:48:20;;;;;;;;;;;;;;;2.41;100.00;98183.34;1764823;80;21126;-81
2021/11/30 11:50:54;;;;;;;;;;;;;;;2.52;100.00;98183.58;1760079;80;20240;-80
2021/11/30 11:53:23;;;;;;;;;;;;;;;2.61;100.00;98163.59;1764450;80;20204;-83
2021/11/30 11:56:19;;;;;;;;;;;;;;;2.74;99.06;98162.69;1769758;80;20167;-84
2021/11/30 11:58:47;;;;;;;;;;;;;;;2.75;99.24;98147.39;1762342;80;20225;-84
2021/11/30 12:01:14;;;;;;;;;;;;;;;2.90;98.68;98140.28;1763380;80;21140;-83
2021/11/30 12:03:58;;;;;;;;;;;;;;;3.01;98.30;98134.27;1768579;80;20141;-81
2021/11/30 12:06:27;;;;;;;;;;;;;;;2.71;97.61;98134.33;1740515;80;20233;-82
2021/11/30 12:09:20;;;;;;;;;;;;;;;2.85;97.95;98115.48;1761384;80;20169;-83
2021/11/30 12:12:12;;;;;;;;;;;;;;;2.84;98.25;98111.27;1766235;80;20201;-80
2021/11/30 12:14:44;;;;;;;;;;;;;;;2.95;97.60;98104.12;1763027;80;22495;-82
2021/11/30 12:17:26;;;;;;;;;;;;;;;2.97;98.30;98094.37;1773709;80;20171;-82
2021/11/30 12:19:58;;;;;;;;;;;;;;;3.08;97.29;98090.16;1738967;80;20232;-81
2021/11/30 12:22:59;;;;;;;;;;;;;;;3.07;97.35;98078.08;1762120;80;20199;-82
2021/11/30 12:25:34;;;;;;;;;;;;;;;3.04;97.29;98071.88;1769065;80;21153;-80
2021/11/30 12:28:02;;;;;;;;;;;;;;;3.02;96.76;98058.20;1760164;80;21074;-81
2021/11/30 12:30:49;;;;;;;;;;;;;;;3.10;96.88;98056.91;1763156;80;20102;-81
2021/11/30 12:33:38;;;;;;;;;;;;;;;3.17;96.91;98047.47;1766145;80;20209;-80
2021/11/30 12:36:13;;;;;;;;;;;;;;;3.00;95.01;98040.60;1766892;80;20241;-82
2021/11/30 12:38:41;;;;;;;;;;;;;;;2.74;94.63;98031.08;1764290;80;20177;-81
2021/11/30 12:41:33;;;;;;;;;;;;;;;2.91;95.63;98019.40;1763798;80;21161;-79
2021/11/30 12:44:18;;;;;;;;;;;;;;;3.02;95.46;98007.35;1769001;80;20163;-79
2021/11/30 12:46:53;;;;;;;;;;;;;;;3.14;94.33;98009.98;1768287;80;20231;-81
2021/11/30 12:49:31;;;;;;;;;;;;;;;3.17;94.65;98000.53;1768807;80;20134;-82
2021/11/30 12:52:12;;;;;;;;;;;;;;;3.01;93.76;97998.70;1767913;80;20923;-80
2021/11/30 12:54:54;;;;;;;;;;;;;;;3.06;94.12;97985.17;1764366;80;21185;-81
2021/11/30 12:57:33;;;;;;;;;;;;;;;3.03;92.90;97985.50;1757216;80;20198;-82
2021/11/30 13:00:11;;;;;;;;;;;;;;;3.05;92.61;97980.95;1771255;80;20131;-79
2021/11/30 13:02:41;;;;;;;;;;;;;;;3.04;92.60;97964.98;1764099;80;20223;-81
2021/11/30 13:05:21;;;;;;;;;;;;;;;3.14;92.36;97964.81;1765944;80;20131;-81
2021/11/30 13:07:52;;;;;;;;;;;;;;;3.03;91.36;97958.13;1767647;80;20204;-82
2021/11/30 13:10:41;;;;;;;;;;;;;;;3.15;91.54;97951.61;1769503;80;20525;-84
2021/11/30 13:13:17;;;;;;;;;;;;;;;3.02;91.05;97948.69;1767077;80;20198;-80
2021/11/30 13:15:47;;;;;;;;;;;;;;;3.04;90.66;97934.99;1775817;80;20119;-81
2021/11/30 13:18:16;;;;;;;;;;;;;;;3.29;90.84;97929.27;1770068;80;21030;-82
2021/11/30 13:20:42;;;;;;;;;;;;;;;3.49;90.41;97924.52;1766216;80;20482;-81